sensor_id;sensor_type;location;lat;lon;timestamp;pressure;altitude;pressure_sealevel;temperature
66170;BMP280;52971;44.024;20.456;2022-09-11T00:00:29;97925.47;;;19.18
66170;BMP280;52971;44.024;20.456;2022-09-11T00:02:55;97922.78;;;19.18
66170;BMP280;52971;44.024;20.456;2022-09-11T00:05:20;97921.56;;;19.15
66170;BMP280;52971;44.024;20.456;2022-09-11T00:07:46;97917.97;;;19.31
66170;BMP280;52971;44.024;20.456;2022-09-11T00:10:12;97920.38;;;19.13
66170;BMP280;52971;44.024;20.456;2022-09-11T00:12:37;97912.41;;;19.20
66170;BMP280;52971;44.024;20.456;2022-09-11T00:15:03;97916.72;;;19.24
66170;BMP280;52971;44.024;20.456;2022-09-11T00:17:29;97922.69;;;19.14
66170;BMP280;52971;44.024;20.456;2022-09-11T00:19:54;97923.97;;;19.20
66170;BMP280;52971;44.024;20.456;2022-09-11T00:22:20;97920.19;;;19.25
66170;BMP280;52971;44.024;20.456;2022-09-11T00:24:46;97921.16;;;19.13
66170;BMP280;52971;44.024;20.456;2022-09-11T00:27:11;97923.53;;;19.18
66170;BMP280;52971;44.024;20.456;2022-09-11T00:29:37;97912.81;;;19.45
66170;BMP280;52971;44.024;20.456;2022-09-11T00:32:02;97916.09;;;19.35
66170;BMP280;52971;44.024;20.456;2022-09-11T00:34:28;97916.63;;;19.44
66170;BMP280;52971;44.024;20.456;2022-09-11T00:36:53;97914.34;;;19.46
66170;BMP280;52971;44.024;20.456;2022-09-11T00:39:19;97908.66;;;19.51
66170;BMP280;52971;44.024;20.456;2022-09-11T00:41:45;97908.97;;;19.46
66170;BMP280;52971;44.024;20.456;2022-09-11T00:46:50;97909.03;;;19.49
66170;BMP280;52971;44.024;20.456;2022-09-11T00:52:02;97900.56;;;19.24
66170;BMP280;52971;44.024;20.456;2022-09-11T00:54:32;97904.03;;;19.25
66170;BMP280;52971;44.024;20.456;2022-09-11T00:57:01;97900.31;;;19.33
66170;BMP280;52971;44.024;20.456;2022-09-11T00:59:29;97897.34;;;19.42
66170;BMP280;52971;44.024;20.456;2022-09-11T01:01:55;97890.78;;;19.36
66170;BMP280;52971;44.024;20.456;2022-09-11T01:04:22;97893.03;;;19.34
66170;BMP280;52971;44.024;20.456;2022-09-11T01:06:50;97901.09;;;19.07
66170;BMP280;52971;44.024;20.456;2022-09-11T01:09:17;97892.84;;;18.97
66170;BMP280;52971;44.024;20.456;2022-09-11T01:11:48;97894.56;;;19.08
66170;BMP280;52971;44.024;20.456;2022-09-11T01:27:43;97896.69;;;18.96
66170;BMP280;52971;44.024;20.456;2022-09-11T01:30:20;97895.28;;;18.82
66170;BMP280;52971;44.024;20.456;2022-09-11T01:35:30;97899.66;;;18.68
66170;BMP280;52971;44.024;20.456;2022-09-11T01:41:11;97893.81;;;18.62
66170;BMP280;52971;44.024;20.456;2022-09-11T01:43:45;97894.88;;;18.58
66170;BMP280;52971;44.024;20.456;2022-09-11T01:46:18;97899.50;;;18.19
66170;BMP280;52971;44.024;20.456;2022-09-11T01:48:51;97901.78;;;18.17
66170;BMP280;52971;44.024;20.456;2022-09-11T01:51:23;97904.88;;;17.99
66170;BMP280;52971;44.024;20.456;2022-09-11T01:53:52;97902.09;;;18.12
66170;BMP280;52971;44.024;20.456;2022-09-11T01:56:21;97896.72;;;18.12
66170;BMP280;52971;44.024;20.456;2022-09-11T01:58:54;97905.88;;;18.30
66170;BMP280;52971;44.024;20.456;2022-09-11T02:01:24;97900.69;;;18.40
66170;BMP280;52971;44.024;20.456;2022-09-11T02:04:22;97891.94;;;18.43
66170;BMP280;52971;44.024;20.456;2022-09-11T02:06:58;97892.13;;;18.54
66170;BMP280;52971;44.024;20.456;2022-09-11T02:09:31;97897.28;;;18.63
66170;BMP280;52971;44.024;20.456;2022-09-11T02:12:01;97898.84;;;18.64
66170;BMP280;52971;44.024;20.456;2022-09-11T02:14:37;97898.69;;;18.57
66170;BMP280;52971;44.024;20.456;2022-09-11T02:19:50;97908.03;;;18.63
66170;BMP280;52971;44.024;20.456;2022-09-11T02:22:17;97899.47;;;18.57
66170;BMP280;52971;44.024;20.456;2022-09-11T02:24:43;97908.50;;;18.68
66170;BMP280;52971;44.024;20.456;2022-09-11T02:27:11;97906.16;;;18.67
66170;BMP280;52971;44.024;20.456;2022-09-11T02:29:37;97901.38;;;18.57
66170;BMP280;52971;44.024;20.456;2022-09-11T02:32:04;97901.25;;;18.50
66170;BMP280;52971;44.024;20.456;2022-09-11T02:34:34;97911.47;;;18.21
66170;BMP280;52971;44.024;20.456;2022-09-11T02:37:11;97910.84;;;18.51
66170;BMP280;52971;44.024;20.456;2022-09-11T02:40:06;97913.69;;;18.38
66170;BMP280;52971;44.024;20.456;2022-09-11T02:48:44;97912.19;;;18.60
66170;BMP280;52971;44.024;20.456;2022-09-11T02:51:36;97913.59;;;18.54
66170;BMP280;52971;44.024;20.456;2022-09-11T02:54:31;97908.03;;;18.24
66170;BMP280;52971;44.024;20.456;2022-09-11T02:57:05;97902.75;;;18.28
66170;BMP280;52971;44.024;20.456;2022-09-11T02:59:42;97906.66;;;18.30
66170;BMP280;52971;44.024;20.456;2022-09-11T03:02:11;97904.69;;;18.50
66170;BMP280;52971;44.024;20.456;2022-09-11T03:04:38;97905.78;;;18.45
66170;BMP280;52971;44.024;20.456;2022-09-11T03:07:03;97909.97;;;18.43
66170;BMP280;52971;44.024;20.456;2022-09-11T03:09:29;97911.53;;;18.44
66170;BMP280;52971;44.024;20.456;2022-09-11T03:11:54;97908.59;;;18.53
66170;BMP280;52971;44.024;20.456;2022-09-11T03:14:20;97904.84;;;18.57
66170;BMP280;52971;44.024;20.456;2022-09-11T03:16:45;97917.22;;;18.62
66170;BMP280;52971;44.024;20.456;2022-09-11T03:19:10;97917.25;;;18.65
66170;BMP280;52971;44.024;20.456;2022-09-11T03:21:36;97907.78;;;18.71
66170;BMP280;52971;44.024;20.456;2022-09-11T03:24:03;97910.28;;;18.61
66170;BMP280;52971;44.024;20.456;2022-09-11T03:26:29;97900.31;;;18.61
66170;BMP280;52971;44.024;20.456;2022-09-11T03:28:57;97899.53;;;18.61
66170;BMP280;52971;44.024;20.456;2022-09-11T03:31:22;97912.56;;;18.59
66170;BMP280;52971;44.024;20.456;2022-09-11T03:33:48;97907.63;;;18.64
66170;BMP280;52971;44.024;20.456;2022-09-11T03:36:13;97899.75;;;18.71
66170;BMP280;52971;44.024;20.456;2022-09-11T03:38:39;97913.00;;;18.41
66170;BMP280;52971;44.024;20.456;2022-09-11T03:41:04;97922.81;;;18.34
66170;BMP280;52971;44.024;20.456;2022-09-11T03:43:30;97919.25;;;18.26
66170;BMP280;52971;44.024;20.456;2022-09-11T03:45:56;97924.66;;;18.11
66170;BMP280;52971;44.024;20.456;2022-09-11T03:48:21;97923.13;;;18.29
66170;BMP280;52971;44.024;20.456;2022-09-11T03:50:49;97924.66;;;18.30
66170;BMP280;52971;44.024;20.456;2022-09-11T03:53:15;97927.13;;;18.38
66170;BMP280;52971;44.024;20.456;2022-09-11T03:55:40;97930.53;;;18.35
66170;BMP280;52971;44.024;20.456;2022-09-11T03:58:06;97926.13;;;18.46
66170;BMP280;52971;44.024;20.456;2022-09-11T04:00:34;97924.94;;;18.25
66170;BMP280;52971;44.024;20.456;2022-09-11T04:03:01;97927.47;;;18.37
66170;BMP280;52971;44.024;20.456;2022-09-11T04:05:26;97927.56;;;18.40
66170;BMP280;52971;44.024;20.456;2022-09-11T04:07:52;97925.28;;;18.42
66170;BMP280;52971;44.024;20.456;2022-09-11T04:10:19;97932.16;;;18.40
66170;BMP280;52971;44.024;20.456;2022-09-11T04:12:46;97934.06;;;18.39
66170;BMP280;52971;44.024;20.456;2022-09-11T04:15:11;97928.53;;;18.32
66170;BMP280;52971;44.024;20.456;2022-09-11T04:17:37;97930.16;;;18.37
66170;BMP280;52971;44.024;20.456;2022-09-11T04:20:03;97932.78;;;18.33
66170;BMP280;52971;44.024;20.456;2022-09-11T04:22:29;97928.81;;;18.46
66170;BMP280;52971;44.024;20.456;2022-09-11T04:24:55;97938.72;;;18.42
66170;BMP280;52971;44.024;20.456;2022-09-11T04:27:24;97938.94;;;18.34
66170;BMP280;52971;44.024;20.456;2022-09-11T04:29:51;97936.25;;;18.34
66170;BMP280;52971;44.024;20.456;2022-09-11T04:32:17;97942.81;;;18.36
66170;BMP280;52971;44.024;20.456;2022-09-11T04:34:42;97941.28;;;18.35
66170;BMP280;52971;44.024;20.456;2022-09-11T04:37:07;97948.47;;;18.31
66170;BMP280;52971;44.024;20.456;2022-09-11T04:39:33;97943.19;;;18.35
66170;BMP280;52971;44.024;20.456;2022-09-11T04:42:00;97951.44;;;18.07
66170;BMP280;52971;44.024;20.456;2022-09-11T04:44:27;97938.72;;;18.23
66170;BMP280;52971;44.024;20.456;2022-09-11T04:46:52;97945.50;;;18.17
66170;BMP280;52971;44.024;20.456;2022-09-11T04:49:18;97948.91;;;18.14
66170;BMP280;52971;44.024;20.456;2022-09-11T04:51:43;97947.19;;;18.06
66170;BMP280;52971;44.024;20.456;2022-09-11T04:54:14;97946.75;;;18.04
66170;BMP280;52971;44.024;20.456;2022-09-11T04:56:40;97953.19;;;17.99
66170;BMP280;52971;44.024;20.456;2022-09-11T04:59:09;97957.69;;;17.95
66170;BMP280;52971;44.024;20.456;2022-09-11T05:01:38;97956.69;;;17.84
66170;BMP280;52971;44.024;20.456;2022-09-11T05:04:04;97947.66;;;17.92
66170;BMP280;52971;44.024;20.456;2022-09-11T05:06:30;97951.28;;;18.00
66170;BMP280;52971;44.024;20.456;2022-09-11T05:09:00;97944.50;;;18.06
66170;BMP280;52971;44.024;20.456;2022-09-11T05:11:27;97945.19;;;18.03
66170;BMP280;52971;44.024;20.456;2022-09-11T05:13:54;97948.00;;;17.91
66170;BMP280;52971;44.024;20.456;2022-09-11T05:16:23;97953.38;;;17.91
66170;BMP280;52971;44.024;20.456;2022-09-11T05:18:50;97948.16;;;17.98
66170;BMP280;52971;44.024;20.456;2022-09-11T05:21:17;97952.00;;;17.97
66170;BMP280;52971;44.024;20.456;2022-09-11T05:23:46;97950.69;;;17.91
66170;BMP280;52971;44.024;20.456;2022-09-11T05:26:14;97952.41;;;17.99
66170;BMP280;52971;44.024;20.456;2022-09-11T05:28:40;97956.09;;;18.10
66170;BMP280;52971;44.024;20.456;2022-09-11T05:31:14;97951.84;;;18.09
66170;BMP280;52971;44.024;20.456;2022-09-11T05:33:42;97950.41;;;17.96
66170;BMP280;52971;44.024;20.456;2022-09-11T05:36:09;97952.00;;;17.97
66170;BMP280;52971;44.024;20.456;2022-09-11T05:38:35;97948.59;;;18.00
66170;BMP280;52971;44.024;20.456;2022-09-11T05:41:01;97956.16;;;18.14
66170;BMP280;52971;44.024;20.456;2022-09-11T05:43:29;97961.84;;;18.28
66170;BMP280;52971;44.024;20.456;2022-09-11T05:45:56;97962.22;;;18.26
66170;BMP280;52971;44.024;20.456;2022-09-11T05:48:22;97961.34;;;18.41
66170;BMP280;52971;44.024;20.456;2022-09-11T05:50:53;97959.09;;;18.43
66170;BMP280;52971;44.024;20.456;2022-09-11T05:53:19;97956.88;;;18.49
66170;BMP280;52971;44.024;20.456;2022-09-11T05:55:45;97967.78;;;18.56
66170;BMP280;52971;44.024;20.456;2022-09-11T05:58:12;97957.16;;;18.63
66170;BMP280;52971;44.024;20.456;2022-09-11T06:00:37;97963.44;;;18.71
66170;BMP280;52971;44.024;20.456;2022-09-11T06:03:05;97957.06;;;18.60
66170;BMP280;52971;44.024;20.456;2022-09-11T06:05:31;97964.22;;;18.71
66170;BMP280;52971;44.024;20.456;2022-09-11T06:07:56;97962.72;;;18.74
66170;BMP280;52971;44.024;20.456;2022-09-11T06:10:22;97966.53;;;18.73
66170;BMP280;52971;44.024;20.456;2022-09-11T06:12:47;97964.53;;;18.89
66170;BMP280;52971;44.024;20.456;2022-09-11T06:15:13;97968.34;;;19.11
66170;BMP280;52971;44.024;20.456;2022-09-11T06:17:38;97961.53;;;19.40
66170;BMP280;52971;44.024;20.456;2022-09-11T06:20:04;97965.78;;;19.41
66170;BMP280;52971;44.024;20.456;2022-09-11T06:22:29;97964.09;;;19.59
66170;BMP280;52971;44.024;20.456;2022-09-11T06:24:57;97963.00;;;19.60
66170;BMP280;52971;44.024;20.456;2022-09-11T06:27:23;97973.06;;;19.66
66170;BMP280;52971;44.024;20.456;2022-09-11T06:29:49;97970.81;;;19.72
66170;BMP280;52971;44.024;20.456;2022-09-11T06:32:14;97970.13;;;19.49
66170;BMP280;52971;44.024;20.456;2022-09-11T06:34:40;97968.97;;;19.50
66170;BMP280;52971;44.024;20.456;2022-09-11T06:37:05;97961.31;;;19.78
66170;BMP280;52971;44.024;20.456;2022-09-11T06:39:31;97955.59;;;19.80
66170;BMP280;52971;44.024;20.456;2022-09-11T06:41:58;97965.03;;;19.96
66170;BMP280;52971;44.024;20.456;2022-09-11T06:44:24;97964.56;;;19.91
66170;BMP280;52971;44.024;20.456;2022-09-11T06:46:50;97965.16;;;20.07
66170;BMP280;52971;44.024;20.456;2022-09-11T06:49:16;97958.09;;;19.95
66170;BMP280;52971;44.024;20.456;2022-09-11T06:51:41;97955.19;;;20.11
66170;BMP280;52971;44.024;20.456;2022-09-11T06:54:07;97958.09;;;20.29
66170;BMP280;52971;44.024;20.456;2022-09-11T06:56:32;97956.47;;;20.21
66170;BMP280;52971;44.024;20.456;2022-09-11T06:58:58;97954.47;;;20.47
66170;BMP280;52971;44.024;20.456;2022-09-11T07:01:24;97949.47;;;20.49
66170;BMP280;52971;44.024;20.456;2022-09-11T07:03:53;97950.97;;;20.47
66170;BMP280;52971;44.024;20.456;2022-09-11T07:06:26;97955.13;;;20.37
66170;BMP280;52971;44.024;20.456;2022-09-11T07:08:55;97946.66;;;20.35
66170;BMP280;52971;44.024;20.456;2022-09-11T07:11:25;97946.69;;;20.39
66170;BMP280;52971;44.024;20.456;2022-09-11T07:13:50;97957.84;;;20.41
66170;BMP280;52971;44.024;20.456;2022-09-11T07:16:16;97957.72;;;20.30
66170;BMP280;52971;44.024;20.456;2022-09-11T07:18:43;97951.41;;;20.49
66170;BMP280;52971;44.024;20.456;2022-09-11T07:21:14;97955.66;;;20.50
66170;BMP280;52971;44.024;20.456;2022-09-11T07:23:40;97960.38;;;20.23
66170;BMP280;52971;44.024;20.456;2022-09-11T07:26:09;97954.03;;;20.08
66170;BMP280;52971;44.024;20.456;2022-09-11T07:28:35;97960.31;;;20.20
66170;BMP280;52971;44.024;20.456;2022-09-11T07:31:13;97967.47;;;20.38
66170;BMP280;52971;44.024;20.456;2022-09-11T07:33:41;97966.09;;;20.55
66170;BMP280;52971;44.024;20.456;2022-09-11T07:36:30;97975.13;;;20.73
66170;BMP280;52971;44.024;20.456;2022-09-11T07:38:57;97971.69;;;20.76
66170;BMP280;52971;44.024;20.456;2022-09-11T07:41:23;97974.06;;;20.78
66170;BMP280;52971;44.024;20.456;2022-09-11T07:43:57;97969.34;;;20.75
66170;BMP280;52971;44.024;20.456;2022-09-11T07:46:24;97963.84;;;21.05
66170;BMP280;52971;44.024;20.456;2022-09-11T07:48:51;97971.28;;;21.15
66170;BMP280;52971;44.024;20.456;2022-09-11T07:51:17;97970.59;;;21.28
66170;BMP280;52971;44.024;20.456;2022-09-11T07:53:45;97967.63;;;21.48
66170;BMP280;52971;44.024;20.456;2022-09-11T07:56:13;97968.41;;;21.48
66170;BMP280;52971;44.024;20.456;2022-09-11T07:58:40;97953.19;;;21.88
66170;BMP280;52971;44.024;20.456;2022-09-11T08:01:14;97961.72;;;21.90
66170;BMP280;52971;44.024;20.456;2022-09-11T08:03:40;97950.63;;;22.20
66170;BMP280;52971;44.024;20.456;2022-09-11T08:06:14;97958.00;;;22.33
66170;BMP280;52971;44.024;20.456;2022-09-11T08:08:40;97952.22;;;22.28
66170;BMP280;52971;44.024;20.456;2022-09-11T08:11:16;97959.59;;;22.48
66170;BMP280;52971;44.024;20.456;2022-09-11T08:13:45;97957.66;;;22.49
66170;BMP280;52971;44.024;20.456;2022-09-11T08:16:11;97970.03;;;22.64
66170;BMP280;52971;44.024;20.456;2022-09-11T08:18:36;97958.44;;;22.67
66170;BMP280;52971;44.024;20.456;2022-09-11T08:21:07;97962.66;;;22.29
66170;BMP280;52971;44.024;20.456;2022-09-11T08:23:34;97966.56;;;22.64
66170;BMP280;52971;44.024;20.456;2022-09-11T08:26:09;97954.97;;;22.91
66170;BMP280;52971;44.024;20.456;2022-09-11T08:28:35;97963.13;;;23.02
66170;BMP280;52971;44.024;20.456;2022-09-11T08:31:02;97956.13;;;23.33
66170;BMP280;52971;44.024;20.456;2022-09-11T08:33:28;97956.50;;;23.45
66170;BMP280;52971;44.024;20.456;2022-09-11T08:35:54;97955.28;;;23.43
66170;BMP280;52971;44.024;20.456;2022-09-11T08:38:19;97948.59;;;23.86
66170;BMP280;52971;44.024;20.456;2022-09-11T08:40:45;97953.19;;;23.97
66170;BMP280;52971;44.024;20.456;2022-09-11T08:43:20;97950.56;;;23.82
66170;BMP280;52971;44.024;20.456;2022-09-11T08:45:47;97952.75;;;24.02
66170;BMP280;52971;44.024;20.456;2022-09-11T08:48:13;97949.47;;;24.39
66170;BMP280;52971;44.024;20.456;2022-09-11T08:50:41;97954.31;;;24.06
66170;BMP280;52971;44.024;20.456;2022-09-11T08:53:12;97960.13;;;24.01
66170;BMP280;52971;44.024;20.456;2022-09-11T08:55:45;97966.41;;;23.84
66170;BMP280;52971;44.024;20.456;2022-09-11T09:01:02;97963.03;;;23.52
66170;BMP280;52971;44.024;20.456;2022-09-11T09:03:34;97960.25;;;23.76
66170;BMP280;52971;44.024;20.456;2022-09-11T09:11:13;97966.88;;;23.65
66170;BMP280;52971;44.024;20.456;2022-09-11T09:19:08;97952.00;;;23.98
66170;BMP280;52971;44.024;20.456;2022-09-11T09:21:47;97953.31;;;23.72
66170;BMP280;52971;44.024;20.456;2022-09-11T09:24:18;97949.13;;;24.37
66170;BMP280;52971;44.024;20.456;2022-09-11T09:26:49;97956.00;;;24.45
66170;BMP280;52971;44.024;20.456;2022-09-11T09:29:36;97951.13;;;24.77
66170;BMP280;52971;44.024;20.456;2022-09-11T09:32:11;97947.19;;;24.33
66170;BMP280;52971;44.024;20.456;2022-09-11T09:34:39;97941.06;;;24.74
66170;BMP280;52971;44.024;20.456;2022-09-11T09:37:20;97940.22;;;24.84
66170;BMP280;52971;44.024;20.456;2022-09-11T09:39:47;97931.97;;;25.32
66170;BMP280;52971;44.024;20.456;2022-09-11T09:48:16;97933.31;;;24.72
66170;BMP280;52971;44.024;20.456;2022-09-11T09:50:42;97933.44;;;24.58
66170;BMP280;52971;44.024;20.456;2022-09-11T09:53:19;97934.78;;;25.25
66170;BMP280;52971;44.024;20.456;2022-09-11T09:55:49;97945.28;;;25.23
66170;BMP280;52971;44.024;20.456;2022-09-11T09:58:16;97933.50;;;25.37
66170;BMP280;52971;44.024;20.456;2022-09-11T10:00:42;97939.00;;;25.30
66170;BMP280;52971;44.024;20.456;2022-09-11T10:03:19;97941.03;;;25.56
66170;BMP280;52971;44.024;20.456;2022-09-11T10:05:47;97934.97;;;25.75
66170;BMP280;52971;44.024;20.456;2022-09-11T10:08:33;97936.13;;;25.74
66170;BMP280;52971;44.024;20.456;2022-09-11T10:11:05;97921.41;;;25.72
66170;BMP280;52971;44.024;20.456;2022-09-11T10:13:33;97926.97;;;25.91
66170;BMP280;52971;44.024;20.456;2022-09-11T10:16:02;97930.53;;;25.20
66170;BMP280;52971;44.024;20.456;2022-09-11T10:26:40;97934.56;;;25.09
66170;BMP280;52971;44.024;20.456;2022-09-11T10:29:28;97934.53;;;24.71
66170;BMP280;52971;44.024;20.456;2022-09-11T10:31:56;97930.69;;;24.65
66170;BMP280;52971;44.024;20.456;2022-09-11T10:34:24;97931.81;;;24.71
66170;BMP280;52971;44.024;20.456;2022-09-11T10:36:52;97931.03;;;24.71
66170;BMP280;52971;44.024;20.456;2022-09-11T10:39:20;97931.88;;;24.61
66170;BMP280;52971;44.024;20.456;2022-09-11T10:41:50;97922.41;;;24.31
66170;BMP280;52971;44.024;20.456;2022-09-11T10:44:19;97931.38;;;24.25
66170;BMP280;52971;44.024;20.456;2022-09-11T10:47:04;97924.28;;;23.69
66170;BMP280;52971;44.024;20.456;2022-09-11T10:49:36;97927.75;;;23.73
66170;BMP280;52971;44.024;20.456;2022-09-11T10:54:39;97926.28;;;23.51
66170;BMP280;52971;44.024;20.456;2022-09-11T11:02:17;97919.38;;;23.39
66170;BMP280;52971;44.024;20.456;2022-09-11T11:04:44;97920.53;;;23.45
66170;BMP280;52971;44.024;20.456;2022-09-11T11:07:21;97919.00;;;23.26
66170;BMP280;52971;44.024;20.456;2022-09-11T11:10:13;97919.03;;;22.84
66170;BMP280;52971;44.024;20.456;2022-09-11T11:12:47;97912.84;;;23.15
66170;BMP280;52971;44.024;20.456;2022-09-11T11:15:25;97906.63;;;23.15
66170;BMP280;52971;44.024;20.456;2022-09-11T11:18:06;97903.50;;;23.41
66170;BMP280;52971;44.024;20.456;2022-09-11T11:36:50;97897.44;;;23.99
66170;BMP280;52971;44.024;20.456;2022-09-11T11:39:26;97899.06;;;23.86
66170;BMP280;52971;44.024;20.456;2022-09-11T11:42:30;97898.09;;;23.44
66170;BMP280;52971;44.024;20.456;2022-09-11T11:44:57;97898.03;;;23.52
66170;BMP280;52971;44.024;20.456;2022-09-11T11:47:31;97895.44;;;23.13
66170;BMP280;52971;44.024;20.456;2022-09-11T12:01:15;97886.16;;;23.14
66170;BMP280;52971;44.024;20.456;2022-09-11T12:03:45;97879.91;;;23.38
66170;BMP280;52971;44.024;20.456;2022-09-11T12:06:12;97884.53;;;23.41
66170;BMP280;52971;44.024;20.456;2022-09-11T12:08:43;97879.25;;;23.02
66170;BMP280;52971;44.024;20.456;2022-09-11T12:11:11;97882.72;;;22.88
66170;BMP280;52971;44.024;20.456;2022-09-11T12:13:44;97884.63;;;22.95
66170;BMP280;52971;44.024;20.456;2022-09-11T12:16:17;97884.59;;;23.27
66170;BMP280;52971;44.024;20.456;2022-09-11T12:19:20;97883.88;;;23.16
66170;BMP280;52971;44.024;20.456;2022-09-11T12:24:25;97888.38;;;23.51
66170;BMP280;52971;44.024;20.456;2022-09-11T12:32:47;97887.63;;;23.39
66170;BMP280;52971;44.024;20.456;2022-09-11T12:37:52;97887.66;;;23.36
66170;BMP280;52971;44.024;20.456;2022-09-11T12:40:50;97883.00;;;23.36
66170;BMP280;52971;44.024;20.456;2022-09-11T12:43:44;97883.06;;;23.22
66170;BMP280;52971;44.024;20.456;2022-09-11T12:51:40;97875.34;;;23.17
66170;BMP280;52971;44.024;20.456;2022-09-11T12:54:16;97879.66;;;22.86
66170;BMP280;52971;44.024;20.456;2022-09-11T12:56:49;97880.03;;;22.64
66170;BMP280;52971;44.024;20.456;2022-09-11T12:59:45;97876.97;;;22.76
66170;BMP280;52971;44.024;20.456;2022-09-11T13:04:57;97882.34;;;22.54
66170;BMP280;52971;44.024;20.456;2022-09-11T13:07:36;97887.75;;;22.47
66170;BMP280;52971;44.024;20.456;2022-09-11T13:10:08;97888.53;;;22.51
66170;BMP280;52971;44.024;20.456;2022-09-11T13:12:52;97900.09;;;22.27
66170;BMP280;52971;44.024;20.456;2022-09-11T13:15:37;97895.44;;;22.24
66170;BMP280;52971;44.024;20.456;2022-09-11T13:18:27;97900.06;;;22.24
66170;BMP280;52971;44.024;20.456;2022-09-11T13:21:11;97902.31;;;21.93
66170;BMP280;52971;44.024;20.456;2022-09-11T13:23:37;97895.34;;;21.96
66170;BMP280;52971;44.024;20.456;2022-09-11T13:26:04;97894.16;;;21.79
66170;BMP280;52971;44.024;20.456;2022-09-11T13:28:41;97896.03;;;21.71
66170;BMP280;52971;44.024;20.456;2022-09-11T13:31:16;97894.56;;;21.88
66170;BMP280;52971;44.024;20.456;2022-09-11T13:33:46;97892.59;;;21.78
66170;BMP280;52971;44.024;20.456;2022-09-11T13:36:15;97894.22;;;22.00
66170;BMP280;52971;44.024;20.456;2022-09-11T13:38:41;97881.06;;;21.92
66170;BMP280;52971;44.024;20.456;2022-09-11T13:41:21;97886.41;;;21.70
66170;BMP280;52971;44.024;20.456;2022-09-11T13:43:54;97884.88;;;21.73
66170;BMP280;52971;44.024;20.456;2022-09-11T13:46:30;97889.06;;;21.63
66170;BMP280;52971;44.024;20.456;2022-09-11T13:51:44;97877.16;;;21.71
66170;BMP280;52971;44.024;20.456;2022-09-11T13:54:17;97875.94;;;21.55
66170;BMP280;52971;44.024;20.456;2022-09-11T13:59:48;97882.13;;;21.59
66170;BMP280;52971;44.024;20.456;2022-09-11T14:05:24;97884.09;;;21.07
66170;BMP280;52971;44.024;20.456;2022-09-11T14:11:02;97881.00;;;20.98
66170;BMP280;52971;44.024;20.456;2022-09-11T14:18:47;97870.16;;;20.95
66170;BMP280;52971;44.024;20.456;2022-09-11T14:21:19;97877.06;;;20.92
66170;BMP280;52971;44.024;20.456;2022-09-11T14:23:54;97878.06;;;20.70
66170;BMP280;52971;44.024;20.456;2022-09-11T14:31:32;97884.34;;;20.84
66170;BMP280;52971;44.024;20.456;2022-09-11T14:34:10;97876.38;;;21.02
66170;BMP280;52971;44.024;20.456;2022-09-11T14:36:41;97880.22;;;21.01
66170;BMP280;52971;44.024;20.456;2022-09-11T14:39:41;97881.09;;;21.16
66170;BMP280;52971;44.024;20.456;2022-09-11T14:42:18;97881.47;;;21.11
66170;BMP280;52971;44.024;20.456;2022-09-11T14:44:45;97881.09;;;21.19
66170;BMP280;52971;44.024;20.456;2022-09-11T14:47:20;97884.97;;;21.15
66170;BMP280;52971;44.024;20.456;2022-09-11T14:49:47;97883.47;;;21.28
66170;BMP280;52971;44.024;20.456;2022-09-11T14:52:19;97873.75;;;21.13
66170;BMP280;52971;44.024;20.456;2022-09-11T14:54:45;97873.78;;;21.20
66170;BMP280;52971;44.024;20.456;2022-09-11T14:57:17;97870.59;;;21.04
66170;BMP280;52971;44.024;20.456;2022-09-11T14:59:43;97861.66;;;20.89
66170;BMP280;52971;44.024;20.456;2022-09-11T15:02:16;97863.69;;;21.03
66170;BMP280;52971;44.024;20.456;2022-09-11T15:04:44;97861.31;;;20.94
66170;BMP280;52971;44.024;20.456;2022-09-11T15:07:11;97863.78;;;21.20
66170;BMP280;52971;44.024;20.456;2022-09-11T15:09:38;97861.06;;;21.17
66170;BMP280;52971;44.024;20.456;2022-09-11T15:12:08;97852.63;;;21.22
66170;BMP280;52971;44.024;20.456;2022-09-11T15:14:34;97853.81;;;21.28
66170;BMP280;52971;44.024;20.456;2022-09-11T15:17:02;97859.50;;;21.16
66170;BMP280;52971;44.024;20.456;2022-09-11T15:19:28;97860.31;;;21.20
66170;BMP280;52971;44.024;20.456;2022-09-11T15:21:54;97868.97;;;20.92
66170;BMP280;52971;44.024;20.456;2022-09-11T15:24:24;97862.91;;;21.02
66170;BMP280;52971;44.024;20.456;2022-09-11T15:26:50;97857.47;;;20.99
66170;BMP280;52971;44.024;20.456;2022-09-11T15:29:22;97857.13;;;21.04
66170;BMP280;52971;44.024;20.456;2022-09-11T15:31:50;97855.66;;;21.10
66170;BMP280;52971;44.024;20.456;2022-09-11T15:34:17;97844.88;;;21.13
66170;BMP280;52971;44.024;20.456;2022-09-11T15:36:43;97851.72;;;21.07
66170;BMP280;52971;44.024;20.456;2022-09-11T15:39:14;97840.94;;;21.04
66170;BMP280;52971;44.024;20.456;2022-09-11T15:41:40;97849.31;;;20.88
66170;BMP280;52971;44.024;20.456;2022-09-11T15:44:17;97849.78;;;21.01
66170;BMP280;52971;44.024;20.456;2022-09-11T15:46:47;97845.16;;;20.98
66170;BMP280;52971;44.024;20.456;2022-09-11T15:49:13;97852.47;;;20.94
66170;BMP280;52971;44.024;20.456;2022-09-11T15:51:39;97843.44;;;20.75
66170;BMP280;52971;44.024;20.456;2022-09-11T15:54:05;97853.25;;;20.98
66170;BMP280;52971;44.024;20.456;2022-09-11T15:56:31;97855.44;;;20.81
66170;BMP280;52971;44.024;20.456;2022-09-11T15:58:58;97855.75;;;20.73
66170;BMP280;52971;44.024;20.456;2022-09-11T16:01:29;97852.13;;;20.51
66170;BMP280;52971;44.024;20.456;2022-09-11T16:04:01;97853.34;;;20.61
66170;BMP280;52971;44.024;20.456;2022-09-11T16:06:28;97857.53;;;20.55
66170;BMP280;52971;44.024;20.456;2022-09-11T16:08:58;97866.38;;;20.52
66170;BMP280;52971;44.024;20.456;2022-09-11T16:11:24;97861.28;;;20.46
66170;BMP280;52971;44.024;20.456;2022-09-11T16:13:52;97859.78;;;20.49
66170;BMP280;52971;44.024;20.456;2022-09-11T16:16:19;97859.72;;;20.45
66170;BMP280;52971;44.024;20.456;2022-09-11T16:18:45;97857.03;;;20.42
66170;BMP280;52971;44.024;20.456;2022-09-11T16:21:12;97855.13;;;20.46
66170;BMP280;52971;44.024;20.456;2022-09-11T16:23:38;97848.25;;;20.48
66170;BMP280;52971;44.024;20.456;2022-09-11T16:26:10;97854.41;;;20.49
66170;BMP280;52971;44.024;20.456;2022-09-11T16:28:37;97851.25;;;20.40